Time;durP1;ratioP1;P1;durP2;ratioP2;P2;SDS_P1;SDS_P2;PMS_P1;PMS_P2;Temp;Humidity;BMP_temperature;BMP_pressure;BME280_temperature;BME280_humidity;BME280_pressure;Samples;Min_cycle;Max_cycle;Signal;HPM_P1;HPM_P2
2022/07/07 00:01:25;;;;;;;4.90;2.50;;;17.90;99.90;;;;;;5095833;28;20208;-40
2022/07/07 00:03:51;;;;;;;4.13;2.30;;;17.90;99.90;;;;;;5114194;28;20527;-37
2022/07/07 00:06:17;;;;;;;2.80;1.60;;;17.80;99.90;;;;;;5113931;28;20186;-38
2022/07/07 00:08:43;;;;;;;4.73;2.20;;;17.80;99.90;;;;;;5114011;28;20243;-39
2022/07/07 00:11:08;;;;;;;4.00;1.63;;;17.80;99.90;;;;;;5113860;28;20205;-40
2022/07/07 00:13:34;;;;;;;3.00;1.70;;;17.80;99.90;;;;;;5113797;28;20174;-38
2022/07/07 00:16:00;;;;;;;5.83;2.20;;;17.80;99.90;;;;;;5113774;28;20174;-38
2022/07/07 00:18:25;;;;;;;6.03;2.23;;;17.80;99.90;;;;;;5114076;28;20181;-38
2022/07/07 00:20:51;;;;;;;5.23;2.03;;;17.80;99.90;;;;;;5113669;28;20233;-38
2022/07/07 00:23:16;;;;;;;2.90;2.10;;;17.80;99.90;;;;;;5113620;28;20178;-39
2022/07/07 00:25:42;;;;;;;7.10;2.30;;;17.80;99.90;;;;;;5113976;28;20175;-40
2022/07/07 00:28:07;;;;;;;4.00;2.53;;;17.70;99.90;;;;;;5095704;28;20209;-39
2022/07/07 00:30:33;;;;;;;3.43;2.57;;;17.70;99.90;;;;;;5113613;28;20186;-39
2022/07/07 00:32:59;;;;;;;3.90;2.60;;;17.70;99.90;;;;;;5113887;28;20178;-39
2022/07/07 00:35:24;;;;;;;4.03;2.20;;;17.70;99.90;;;;;;5113445;28;20185;-39
2022/07/07 00:37:50;;;;;;;2.97;2.60;;;17.70;99.90;;;;;;5113815;28;20170;-41
2022/07/07 00:40:15;;;;;;;4.73;3.13;;;17.70;99.90;;;;;;5114059;28;20514;-41
2022/07/07 00:42:41;;;;;;;3.30;2.33;;;17.60;99.90;;;;;;5113549;28;20174;-41
2022/07/07 00:45:07;;;;;;;5.70;2.90;;;17.60;99.90;;;;;;5113793;28;20205;-38
2022/07/07 00:47:33;;;;;;;4.97;2.80;;;17.60;99.90;;;;;;5113334;28;20202;-40
2022/07/07 00:50:00;;;;;;;3.00;2.17;;;17.60;99.90;;;;;;5113410;28;20200;-40
2022/07/07 00:52:25;;;;;;;5.03;2.67;;;17.70;99.90;;;;;;5113650;28;20193;-39
2022/07/07 00:54:53;;;;;;;6.30;2.80;;;17.60;99.90;;;;;;5113708;28;20685;-41
2022/07/07 00:57:19;;;;;;;3.13;2.13;;;17.60;99.90;;;;;;5113724;28;20717;-41
2022/07/07 00:59:44;;;;;;;5.00;2.33;;;17.70;99.90;;;;;;5113604;28;20198;-41
2022/07/07 01:02:10;;;;;;;5.53;2.30;;;17.70;99.90;;;;;;5113649;28;20528;-42
2022/07/07 01:04:36;;;;;;;3.03;2.23;;;17.70;99.90;;;;;;5113363;28;20227;-39
2022/07/07 01:07:01;;;;;;;2.97;2.00;;;17.60;99.90;;;;;;5113530;28;20209;-38
2022/07/07 01:09:28;;;;;;;3.87;2.10;;;17.70;99.90;;;;;;5114455;28;20195;-40
2022/07/07 01:11:55;;;;;;;3.60;2.00;;;17.70;99.90;;;;;;5117473;28;20223;-40
2022/07/07 01:14:22;;;;;;;3.90;2.33;;;17.70;99.90;;;;;;5117130;28;20235;-39
2022/07/07 01:16:49;;;;;;;5.07;2.00;;;17.70;99.90;;;;;;5116991;28;20230;-41
2022/07/07 01:19:16;;;;;;;4.50;2.50;;;17.70;99.90;;;;;;5117023;28;20191;-39
2022/07/07 01:21:53;;;;;;;3.47;2.30;;;17.70;99.90;;;;;;5117051;28;20170;-39
2022/07/07 01:24:19;;;;;;;3.73;2.27;;;17.70;99.90;;;;;;5118042;28;20162;-40
2022/07/07 01:26:45;;;;;;;5.07;2.77;;;17.60;99.90;;;;;;5116799;28;20627;-40
2022/07/07 01:29:11;;;;;;;4.83;2.00;;;17.60;99.90;;;;;;5116993;28;20277;-39
2022/07/07 01:31:36;;;;;;;3.83;2.13;;;17.60;99.90;;;;;;5116842;28;20167;-40
2022/07/07 01:34:02;;;;;;;5.37;2.23;;;17.60;99.90;;;;;;5116798;28;20198;-40
2022/07/07 01:36:28;;;;;;;6.07;2.70;;;17.60;99.90;;;;;;5116726;28;20647;-40
2022/07/07 01:38:53;;;;;;;4.07;2.27;;;17.50;99.90;;;;;;5116997;28;20261;-39
2022/07/07 01:41:19;;;;;;;4.07;2.53;;;17.40;99.90;;;;;;5116916;28;20178;-39
2022/07/07 01:43:45;;;;;;;2.43;2.10;;;17.40;99.90;;;;;;5118491;28;20209;-40
2022/07/07 01:46:10;;;;;;;4.17;2.37;;;17.40;99.90;;;;;;5116860;28;20206;-40
2022/07/07 01:48:36;;;;;;;4.77;2.67;;;17.30;99.90;;;;;;5116454;28;20198;-39
2022/07/07 01:51:02;;;;;;;6.00;3.27;;;17.30;99.90;;;;;;5116989;28;20175;-40
2022/07/07 01:53:27;;;;;;;4.50;2.33;;;17.30;99.90;;;;;;5116665;28;20181;-40
2022/07/07 01:55:53;;;;;;;4.40;2.67;;;17.30;99.90;;;;;;5116618;28;20174;-40
2022/07/07 01:58:19;;;;;;;5.23;2.40;;;17.30;99.90;;;;;;5116594;28;20190;-39
2022/07/07 02:00:44;;;;;;;3.70;2.60;;;17.30;99.90;;;;;;5116944;28;20200;-39
2022/07/07 02:03:10;;;;;;;4.90;2.87;;;17.30;99.90;;;;;;5116484;28;20217;-40
2022/07/07 02:05:35;;;;;;;4.97;2.47;;;17.30;99.90;;;;;;5116432;28;20178;-39
2022/07/07 02:08:01;;;;;;;4.17;2.40;;;17.30;99.90;;;;;;5116079;28;20209;-38
2022/07/07 02:13:11;;;;;;;4.80;2.73;;;17.30;99.90;;;;;;5116087;28;20223;-39
2022/07/07 02:15:36;;;;;;;4.33;2.70;;;17.30;99.90;;;;;;5115913;28;20649;-40
2022/07/07 02:18:02;;;;;;;2.77;2.37;;;17.30;99.90;;;;;;5116195;28;20220;-39
2022/07/07 02:20:27;;;;;;;4.23;2.50;;;17.30;99.90;;;;;;5115566;28;20197;-40
2022/07/07 02:22:53;;;;;;;2.70;2.50;;;17.30;99.90;;;;;;5115811;28;20178;-40
2022/07/07 02:25:19;;;;;;;5.37;3.00;;;17.30;99.90;;;;;;5116006;28;20565;-41
2022/07/07 02:27:44;;;;;;;4.90;2.90;;;17.30;99.90;;;;;;5115893;28;20209;-40
2022/07/07 02:30:10;;;;;;;3.13;2.50;;;17.30;99.90;;;;;;5115549;28;20198;-40
2022/07/07 02:32:36;;;;;;;4.20;2.60;;;17.30;99.90;;;;;;5115578;28;20171;-40
2022/07/07 02:35:01;;;;;;;3.90;2.67;;;17.30;99.90;;;;;;5115567;28;20166;-41
2022/07/07 02:37:27;;;;;;;2.83;2.53;;;17.20;99.90;;;;;;5115370;28;20190;-40
2022/07/07 02:39:53;;;;;;;2.90;2.10;;;17.20;99.90;;;;;;5115438;28;20194;-40
2022/07/07 02:42:19;;;;;;;4.63;2.03;;;17.20;99.90;;;;;;5115383;28;20248;-40
2022/07/07 02:44:44;;;;;;;3.40;2.17;;;17.20;99.90;;;;;;5115305;28;20185;-40
2022/07/07 02:47:10;;;;;;;4.97;2.23;;;17.00;99.90;;;;;;5096958;28;20259;-40
2022/07/07 02:49:35;;;;;;;3.30;2.40;;;17.20;99.90;;;;;;5115518;28;20318;-40
2022/07/07 02:52:03;;;;;;;2.60;2.03;;;17.20;99.90;;;;;;5115259;28;20599;-40
2022/07/07 02:54:29;;;;;;;4.03;1.97;;;17.20;99.90;;;;;;5115089;28;20235;-40
2022/07/07 02:56:54;;;;;;;3.07;2.23;;;17.20;99.90;;;;;;5115407;28;20182;-40
2022/07/07 02:59:20;;;;;;;3.40;2.07;;;17.20;99.90;;;;;;5114973;28;20198;-40
2022/07/07 03:01:45;;;;;;;3.43;1.97;;;17.20;99.90;;;;;;5115285;28;20231;-40
2022/07/07 03:04:11;;;;;;;5.30;2.30;;;17.20;99.90;;;;;;5114954;28;20262;-38
2022/07/07 03:06:37;;;;;;;3.70;2.00;;;17.20;99.90;;;;;;5115110;28;20189;-38
2022/07/07 03:09:02;;;;;;;3.17;2.00;;;17.20;99.90;;;;;;5114794;28;20230;-41
2022/07/07 03:11:28;;;;;;;3.33;2.30;;;17.20;99.90;;;;;;5114856;28;20182;-41
2022/07/07 03:13:54;;;;;;;5.13;1.90;;;17.20;99.90;;;;;;5115016;28;20182;-40
2022/07/07 03:16:19;;;;;;;4.47;1.90;;;17.20;99.90;;;;;;5114729;28;20182;-40
2022/07/07 03:18:45;;;;;;;2.37;2.00;;;17.20;99.90;;;;;;5114659;28;20212;-39
2022/07/07 03:21:10;;;;;;;3.80;1.80;;;17.20;99.90;;;;;;5114680;28;20178;-40
2022/07/07 03:23:36;;;;;;;4.70;1.97;;;17.30;99.90;;;;;;5114615;28;20253;-40
2022/07/07 03:26:01;;;;;;;4.37;2.27;;;17.20;99.90;;;;;;5114592;28;20174;-40
2022/07/07 03:28:27;;;;;;;4.90;2.10;;;17.20;99.90;;;;;;5115052;28;20224;-40
2022/07/07 03:30:53;;;;;;;3.10;2.10;;;17.30;99.90;;;;;;5115873;28;20258;-40
2022/07/07 03:33:18;;;;;;;2.30;2.00;;;17.30;99.90;;;;;;5115645;28;20181;-40
2022/07/07 03:35:44;;;;;;;2.20;1.87;;;17.30;99.90;;;;;;5116265;28;20658;-40
2022/07/07 03:38:09;;;;;;;3.67;2.00;;;17.30;99.90;;;;;;5116536;28;20178;-40
2022/07/07 03:40:35;;;;;;;3.07;2.23;;;17.30;99.90;;;;;;5115892;28;20200;-40
2022/07/07 03:43:00;;;;;;;3.30;1.90;;;17.30;99.90;;;;;;5114860;28;20186;-38
2022/07/07 03:45:26;;;;;;;2.30;1.93;;;17.30;99.90;;;;;;5114229;28;20179;-39
2022/07/07 03:47:51;;;;;;;3.63;2.30;;;17.30;99.90;;;;;;5114114;28;20262;-40
2022/07/07 03:50:17;;;;;;;5.07;1.87;;;17.30;99.90;;;;;;5114206;28;20190;-40
2022/07/07 03:52:43;;;;;;;3.57;2.17;;;17.30;99.90;;;;;;5114100;28;20665;-37
2022/07/07 03:55:08;;;;;;;5.73;2.53;;;17.20;99.90;;;;;;5114006;28;20186;-40
2022/07/07 03:57:34;;;;;;;2.87;2.20;;;17.20;99.90;;;;;;5114634;28;20189;-39
2022/07/07 04:00:00;;;;;;;3.50;1.93;;;17.20;99.90;;;;;;5114181;28;20210;-40
2022/07/07 04:02:26;;;;;;;2.93;2.30;;;17.20;99.90;;;;;;5113954;28;20178;-36
2022/07/07 04:04:52;;;;;;;3.90;2.03;;;17.20;99.90;;;;;;5113981;28;20185;-37
2022/07/07 04:07:17;;;;;;;4.90;2.30;;;17.20;99.90;;;;;;5114191;28;20206;-41
2022/07/07 04:09:43;;;;;;;7.10;2.27;;;17.20;99.90;;;;;;5114059;28;20208;-40
2022/07/07 04:12:09;;;;;;;3.27;2.20;;;17.20;99.90;;;;;;5114466;28;20181;-40
2022/07/07 04:14:35;;;;;;;3.30;2.00;;;17.20;99.90;;;;;;5114018;28;20532;-40
2022/07/07 04:17:00;;;;;;;3.30;1.73;;;17.20;99.90;;;;;;5114155;28;20186;-40
2022/07/07 04:19:26;;;;;;;2.33;1.90;;;17.20;99.90;;;;;;5113730;28;20204;-40
2022/07/07 04:21:52;;;;;;;3.20;1.83;;;17.20;99.90;;;;;;5113700;28;20642;-39
2022/07/07 04:24:17;;;;;;;2.73;2.20;;;17.20;99.90;;;;;;5113706;28;20200;-38
2022/07/07 04:26:43;;;;;;;4.83;1.97;;;17.20;99.90;;;;;;5113951;28;20186;-40
2022/07/07 04:29:08;;;;;;;2.80;1.97;;;17.30;99.90;;;;;;5113653;28;20251;-40
2022/07/07 04:31:34;;;;;;;3.07;1.70;;;17.20;99.90;;;;;;5113760;28;20253;-40
2022/07/07 04:34:00;;;;;;;4.27;1.97;;;17.20;99.90;;;;;;5114838;28;20181;-38
2022/07/07 04:36:25;;;;;;;2.70;1.80;;;17.20;99.90;;;;;;5113689;28;20658;-38
2022/07/07 04:38:51;;;;;;;5.20;2.10;;;17.20;99.90;;;;;;5114105;28;20205;-39
2022/07/07 04:41:16;;;;;;;2.47;1.80;;;17.20;99.90;;;;;;5113990;28;20207;-40
2022/07/07 04:43:42;;;;;;;2.27;2.00;;;17.30;99.90;;;;;;5114627;28;20174;-40
2022/07/07 04:46:08;;;;;;;3.50;2.03;;;17.20;99.90;;;;;;5117767;28;20217;-39
2022/07/07 04:48:33;;;;;;;2.43;1.90;;;17.30;99.90;;;;;;5117478;28;20198;-38
2022/07/07 04:50:59;;;;;;;2.07;1.70;;;17.30;99.90;;;;;;5117595;28;20685;-38
2022/07/07 04:53:24;;;;;;;2.07;1.87;;;17.30;99.90;;;;;;5119245;28;20177;-39
2022/07/07 04:55:50;;;;;;;2.50;2.00;;;17.30;99.90;;;;;;5119186;28;20166;-40
2022/07/07 04:58:15;;;;;;;4.20;2.20;;;17.40;99.90;;;;;;5120563;28;20170;-40
2022/07/07 05:00:41;;;;;;;3.30;1.80;;;17.30;99.90;;;;;;5117425;28;20622;-40
2022/07/07 05:03:06;;;;;;;2.87;2.10;;;17.40;99.90;;;;;;5117401;28;20231;-39
2022/07/07 05:05:32;;;;;;;6.60;2.40;;;17.40;99.90;;;;;;5118381;28;20167;-41
2022/07/07 05:07:58;;;;;;;2.30;1.90;;;17.40;99.90;;;;;;5118042;28;20205;-39
2022/07/07 05:10:23;;;;;;;4.17;2.00;;;17.40;99.90;;;;;;5118724;28;20190;-41
2022/07/07 05:12:49;;;;;;;3.10;2.20;;;17.40;99.90;;;;;;5117472;28;20174;-38
2022/07/07 05:15:14;;;;;;;2.57;1.97;;;17.40;99.90;;;;;;5117438;28;20190;-40
2022/07/07 05:17:40;;;;;;;4.70;2.30;;;17.30;99.90;;;;;;5117654;28;20625;-40
2022/07/07 05:20:06;;;;;;;3.60;2.40;;;17.30;99.90;;;;;;5117487;28;20281;-43
2022/07/07 05:22:32;;;;;;;3.43;2.40;;;17.30;99.90;;;;;;5117282;28;20182;-42
2022/07/07 05:24:57;;;;;;;3.80;2.60;;;17.30;99.90;;;;;;5116998;28;20201;-44
2022/07/07 05:27:23;;;;;;;4.90;2.70;;;17.30;99.90;;;;;;5116828;28;20205;-42
2022/07/07 05:29:48;;;;;;;4.17;2.70;;;17.20;99.90;;;;;;5117043;28;20248;-43
2022/07/07 05:32:14;;;;;;;5.50;2.67;;;17.20;99.90;;;;;;5116827;28;20178;-41
2022/07/07 05:34:39;;;;;;;4.67;2.37;;;17.20;99.90;;;;;;5118047;28;20182;-42
2022/07/07 05:37:05;;;;;;;4.27;2.50;;;17.20;99.90;;;;;;5116679;28;20225;-41
2022/07/07 05:39:32;;;;;;;3.43;2.23;;;17.20;99.90;;;;;;5116696;28;20199;-41
2022/07/07 05:41:57;;;;;;;2.93;2.13;;;17.00;99.90;;;;;;5116942;28;20202;-44
2022/07/07 05:44:23;;;;;;;2.30;2.10;;;16.90;99.90;;;;;;5116839;28;20212;-43
2022/07/07 05:46:48;;;;;;;6.70;2.13;;;16.80;99.90;;;;;;5116448;28;20174;-43
2022/07/07 05:49:14;;;;;;;3.33;1.87;;;16.60;99.90;;;;;;5116308;28;20186;-44
2022/07/07 05:51:39;;;;;;;2.80;1.90;;;16.50;99.90;;;;;;5116797;28;20284;-41
2022/07/07 05:54:05;;;;;;;3.87;2.10;;;16.50;99.90;;;;;;5116383;28;20181;-43
2022/07/07 05:56:31;;;;;;;2.70;1.93;;;16.40;99.90;;;;;;5116062;28;20223;-43
2022/07/07 05:58:56;;;;;;;2.87;1.90;;;16.50;99.90;;;;;;5116490;28;20285;-43
2022/07/07 06:01:22;;;;;;;2.23;1.50;;;16.40;99.90;;;;;;5116815;28;20189;-44
2022/07/07 06:03:47;;;;;;;2.10;1.70;;;16.50;99.90;;;;;;5116225;28;20654;-44
2022/07/07 06:06:13;;;;;;;2.50;1.67;;;16.50;99.90;;;;;;5116481;28;20697;-44
2022/07/07 06:08:38;;;;;;;2.10;1.50;;;16.50;99.90;;;;;;5116131;28;20214;-43
2022/07/07 06:11:04;;;;;;;4.80;1.57;;;16.50;99.90;;;;;;5116113;28;20243;-44
2022/07/07 06:13:30;;;;;;;4.30;1.80;;;16.60;99.90;;;;;;5115995;28;20197;-45
2022/07/07 06:15:56;;;;;;;2.10;1.67;;;16.70;99.90;;;;;;5116237;28;20257;-42
2022/07/07 06:18:22;;;;;;;3.70;1.83;;;16.70;99.90;;;;;;5115903;28;20209;-43
2022/07/07 06:20:48;;;;;;;2.70;1.50;;;16.70;99.90;;;;;;5115858;28;20259;-42
2022/07/07 06:23:13;;;;;;;1.80;1.40;;;16.70;99.90;;;;;;5097650;28;20182;-42
2022/07/07 06:25:39;;;;;;;4.03;1.40;;;16.80;99.90;;;;;;5115844;28;20178;-42
2022/07/07 06:28:05;;;;;;;6.10;1.60;;;16.80;99.90;;;;;;5097495;28;20206;-43
2022/07/07 06:30:30;;;;;;;2.80;1.53;;;16.90;99.90;;;;;;5115709;28;20291;-44
2022/07/07 06:32:56;;;;;;;2.10;1.37;;;16.80;99.90;;;;;;5116014;28;20175;-43
2022/07/07 06:35:26;;;;;;;1.23;1.13;;;16.80;99.90;;;;;;5115581;28;20174;-43
2022/07/07 06:37:53;;;;;;;2.13;1.40;;;16.90;99.90;;;;;;5115900;28;20609;-43
2022/07/07 06:40:19;;;;;;;1.87;1.20;;;16.80;99.90;;;;;;5115772;28;20259;-44
2022/07/07 06:42:45;;;;;;;0.80;0.80;;;16.80;99.90;;;;;;5115879;28;20166;-43
2022/07/07 06:45:11;;;;;;;1.40;1.13;;;16.80;99.90;;;;;;5115405;28;20521;-44
2022/07/07 06:47:36;;;;;;;0.70;0.70;;;16.80;99.90;;;;;;5118496;28;20210;-43
2022/07/07 06:50:03;;;;;;;3.20;1.10;;;16.90;99.90;;;;;;5115529;28;20666;-42
2022/07/07 06:52:28;;;;;;;1.53;1.03;;;17.00;99.90;;;;;;5115153;28;20249;-43
2022/07/07 06:54:54;;;;;;;1.10;1.10;;;17.10;99.90;;;;;;5115514;28;20213;-43
2022/07/07 06:57:20;;;;;;;1.33;1.13;;;17.10;99.90;;;;;;5115413;28;20586;-42
2022/07/07 06:59:45;;;;;;;1.17;1.00;;;17.10;99.90;;;;;;5115353;28;20202;-44
2022/07/07 07:02:11;;;;;;;1.57;1.10;;;17.10;99.90;;;;;;5115341;28;20178;-44
2022/07/07 07:04:36;;;;;;;16.10;1.80;;;17.20;99.90;;;;;;5115589;28;20174;-43
2022/07/07 07:07:02;;;;;;;1.87;1.47;;;17.20;99.90;;;;;;5114415;28;20211;-44
2022/07/07 07:09:27;;;;;;;2.47;1.60;;;17.20;99.90;;;;;;5115057;28;20200;-42
2022/07/07 07:11:54;;;;;;;2.93;1.30;;;17.30;99.90;;;;;;5115370;28;20182;-42
2022/07/07 07:14:20;;;;;;;1.33;1.23;;;17.30;99.90;;;;;;5114688;28;20188;-43
2022/07/07 07:16:46;;;;;;;1.63;1.20;;;17.30;99.90;;;;;;5114789;28;20223;-43
2022/07/07 07:19:11;;;;;;;4.77;1.33;;;17.30;99.90;;;;;;5114950;28;20198;-43
2022/07/07 07:21:37;;;;;;;2.30;1.10;;;17.30;99.90;;;;;;5114671;28;20174;-43
2022/07/07 07:24:03;;;;;;;2.03;1.20;;;17.40;99.90;;;;;;5114651;28;20189;-43
2022/07/07 07:26:29;;;;;;;1.20;1.10;;;17.40;99.90;;;;;;5114903;28;20182;-42
2022/07/07 07:28:55;;;;;;;2.37;1.00;;;17.40;99.90;;;;;;5114474;28;20270;-44
2022/07/07 07:31:20;;;;;;;1.83;0.90;;;17.40;99.90;;;;;;5114936;28;20205;-44
2022/07/07 07:33:47;;;;;;;1.60;0.70;;;17.40;99.90;;;;;;5114837;28;20247;-43
2022/07/07 07:36:12;;;;;;;0.97;0.70;;;17.40;99.90;;;;;;5114576;28;20213;-43
2022/07/07 07:38:39;;;;;;;3.00;0.80;;;17.30;99.90;;;;;;5115637;28;20192;-43
2022/07/07 07:41:07;;;;;;;1.13;0.50;;;17.20;99.90;;;;;;5116372;28;20238;-44
2022/07/07 07:43:34;;;;;;;1.03;0.67;;;17.20;99.90;;;;;;5116161;28;20174;-43
2022/07/07 07:45:59;;;;;;;1.20;0.50;;;17.20;99.90;;;;;;5115795;28;20174;-43
2022/07/07 07:48:25;;;;;;;1.03;0.70;;;17.20;99.90;;;;;;5116592;28;20211;-44
2022/07/07 07:50:51;;;;;;;3.00;0.60;;;17.20;99.90;;;;;;5114589;28;20202;-42
2022/07/07 07:53:16;;;;;;;1.50;0.60;;;17.30;99.90;;;;;;5114251;28;20174;-44
2022/07/07 07:55:42;;;;;;;2.03;0.50;;;17.30;99.90;;;;;;5114394;28;20170;-43
2022/07/07 07:58:07;;;;;;;2.50;0.70;;;17.40;99.90;;;;;;5114361;28;20178;-44
2022/07/07 08:00:33;;;;;;;0.73;0.50;;;17.50;99.90;;;;;;5113962;28;20198;-44
2022/07/07 08:02:59;;;;;;;0.50;0.50;;;17.60;99.90;;;;;;5114110;28;20181;-45
2022/07/07 08:05:26;;;;;;;4.37;1.07;;;17.70;99.90;;;;;;5114236;28;20175;-44
2022/07/07 08:07:51;;;;;;;0.53;0.53;;;17.70;99.90;;;;;;5113898;28;20561;-44
2022/07/07 08:10:17;;;;;;;3.77;0.67;;;18.00;99.90;;;;;;5113847;28;20194;-44
2022/07/07 08:12:45;;;;;;;0.73;0.70;;;18.00;99.90;;;;;;5114232;28;20166;-43
2022/07/07 08:15:12;;;;;;;4.33;1.20;;;18.10;99.90;;;;;;5098232;28;20202;-43
2022/07/07 08:17:38;;;;;;;1.53;0.53;;;18.20;99.90;;;;;;5113889;28;20189;-42
2022/07/07 08:20:04;;;;;;;4.70;0.83;;;18.10;99.90;;;;;;5114470;28;20204;-44
2022/07/07 08:22:30;;;;;;;5.03;1.00;;;18.10;99.90;;;;;;5113729;28;20258;-43
2022/07/07 08:24:56;;;;;;;2.03;0.90;;;18.00;99.90;;;;;;5113807;28;20227;-43
2022/07/07 08:27:22;;;;;;;3.30;0.80;;;17.80;99.90;;;;;;5113702;28;20676;-43
2022/07/07 08:29:49;;;;;;;2.30;1.00;;;17.70;99.90;;;;;;5113908;28;20194;-43
2022/07/07 08:32:15;;;;;;;1.90;0.70;;;17.60;99.90;;;;;;5114010;28;20259;-44
2022/07/07 08:34:41;;;;;;;3.47;1.03;;;17.50;99.90;;;;;;5113721;28;20173;-43
2022/07/07 08:37:06;;;;;;;4.03;0.90;;;17.50;99.90;;;;;;5095341;28;20190;-43
2022/07/07 08:39:33;;;;;;;5.53;1.03;;;17.50;99.90;;;;;;5113591;28;20688;-42
2022/07/07 08:41:59;;;;;;;2.27;0.83;;;17.50;99.90;;;;;;5113644;28;20189;-41
2022/07/07 08:44:26;;;;;;;3.27;0.90;;;17.50;99.90;;;;;;5113903;28;20288;-43
2022/07/07 08:46:52;;;;;;;1.97;0.80;;;17.60;99.90;;;;;;5113429;28;20740;-43
2022/07/07 08:49:18;;;;;;;2.67;0.87;;;17.70;99.90;;;;;;5113532;28;20194;-41
2022/07/07 08:51:45;;;;;;;6.57;0.90;;;17.70;99.90;;;;;;5113564;28;20173;-43
2022/07/07 08:54:12;;;;;;;3.60;0.80;;;17.70;99.90;;;;;;5113494;28;20642;-43
2022/07/07 08:56:38;;;;;;;2.13;0.90;;;17.60;99.90;;;;;;5113779;28;20202;-43
2022/07/07 08:59:08;;;;;;;4.47;1.23;;;17.50;99.90;;;;;;5113286;28;20733;-42
2022/07/07 09:01:35;;;;;;;2.83;0.87;;;17.50;99.90;;;;;;5113623;28;20178;-44
2022/07/07 09:04:01;;;;;;;3.67;1.00;;;17.60;99.90;;;;;;5115043;28;20261;-43
2022/07/07 09:06:27;;;;;;;2.47;0.80;;;17.70;99.90;;;;;;5113434;28;20232;-43
2022/07/07 09:08:54;;;;;;;2.27;0.90;;;18.00;99.90;;;;;;5113259;28;20213;-43
2022/07/07 09:11:31;;;;;;;4.67;0.90;;;18.10;99.90;;;;;;5113680;28;20197;-42
2022/07/07 09:14:15;;;;;;;3.70;0.90;;;18.20;99.90;;;;;;5113274;28;20221;-42
2022/07/07 09:16:42;;;;;;;0.83;0.57;;;18.40;99.90;;;;;;5113838;28;20182;-44
2022/07/07 09:19:21;;;;;;;2.83;1.00;;;18.60;99.90;;;;;;5113222;28;20190;-43
2022/07/07 09:21:47;;;;;;;1.73;0.70;;;18.70;99.90;;;;;;5113812;28;20166;-43
2022/07/07 09:24:13;;;;;;;1.83;0.80;;;18.90;99.90;;;;;;5113258;28;20688;-43
2022/07/07 09:26:47;;;;;;;1.77;0.80;;;19.10;99.90;;;;;;5113167;28;20178;-45
2022/07/07 09:29:17;;;;;;;4.40;1.00;;;19.30;99.90;;;;;;5115631;28;20233;-44
2022/07/07 09:32:04;;;;;;;4.67;0.97;;;19.50;99.90;;;;;;5116716;28;20182;-43
2022/07/07 09:34:35;;;;;;;0.73;0.60;;;19.50;99.90;;;;;;5117070;28;20170;-43
2022/07/07 09:39:50;;;;;;;1.13;0.50;;;19.40;99.90;;;;;;5117018;28;20242;-44
2022/07/07 09:42:24;;;;;;;0.73;0.50;;;19.40;99.90;;;;;;5116954;28;20182;-43
2022/07/07 09:45:12;;;;;;;1.47;0.70;;;19.50;99.90;;;;;;5116652;28;20154;-43
2022/07/07 09:47:38;;;;;;;0.97;0.40;;;19.70;99.90;;;;;;5116370;28;20240;-41
2022/07/07 09:50:06;;;;;;;1.30;0.50;;;19.80;99.90;;;;;;5116493;28;20222;-44
2022/07/07 09:52:34;;;;;;;0.83;0.60;;;19.80;99.90;;;;;;5116477;28;20227;-42
2022/07/07 09:55:01;;;;;;;2.50;0.60;;;19.90;99.90;;;;;;5116691;28;20182;-44
2022/07/07 09:57:26;;;;;;;1.67;0.80;;;20.00;99.90;;;;;;5116615;28;20189;-44
2022/07/07 09:59:53;;;;;;;1.20;0.60;;;20.20;99.90;;;;;;5116262;28;20593;-43
2022/07/07 10:02:29;;;;;;;2.47;0.83;;;20.40;99.90;;;;;;5116579;28;20599;-44
2022/07/07 10:04:58;;;;;;;2.13;0.80;;;20.40;99.90;;;;;;5116264;28;20159;-43
2022/07/07 10:07:29;;;;;;;3.23;0.70;;;20.20;99.90;;;;;;5116460;28;20197;-41
2022/07/07 10:09:56;;;;;;;3.10;0.70;;;20.00;99.90;;;;;;5116085;28;20193;-44
2022/07/07 10:12:24;;;;;;;1.63;0.60;;;19.60;99.90;;;;;;5116353;28;20633;-43
2022/07/07 10:15:13;;;;;;;4.30;0.90;;;19.30;99.90;;;;;;5116325;28;20261;-44
2022/07/07 10:17:41;;;;;;;2.67;0.53;;;19.10;99.90;;;;;;5115660;28;20198;-43
2022/07/07 10:20:08;;;;;;;2.60;0.50;;;18.90;99.90;;;;;;5116232;28;20281;-43
2022/07/07 10:22:35;;;;;;;1.77;0.60;;;18.90;99.90;;;;;;5115877;28;20216;-41
2022/07/07 10:25:03;;;;;;;2.43;0.63;;;18.80;99.90;;;;;;5116227;28;20178;-43
2022/07/07 10:27:30;;;;;;;3.27;0.80;;;18.90;99.90;;;;;;5117020;28;20564;-43
2022/07/07 10:29:57;;;;;;;2.50;0.60;;;19.10;99.90;;;;;;5118143;28;20198;-43
2022/07/07 10:32:38;;;;;;;1.30;0.70;;;19.40;99.90;;;;;;5115792;28;20634;-44
2022/07/07 10:35:12;;;;;;;2.40;0.80;;;19.60;99.90;;;;;;5115943;28;20528;-43
2022/07/07 10:37:45;;;;;;;1.43;0.70;;;19.80;99.90;;;;;;5117579;28;20197;-45
2022/07/07 10:40:28;;;;;;;3.27;0.60;;;19.90;99.90;;;;;;5116497;28;20273;-45
2022/07/07 10:42:57;;;;;;;0.70;0.40;;;19.80;99.90;;;;;;5116205;28;20229;-43
2022/07/07 10:45:24;;;;;;;1.80;0.87;;;19.70;99.90;;;;;;5116865;28;20182;-42
2022/07/07 10:47:50;;;;;;;2.67;0.53;;;19.60;99.90;;;;;;5116657;28;20198;-41
2022/07/07 10:50:31;;;;;;;0.93;0.50;;;19.60;99.90;;;;;;5115568;28;20190;-40
2022/07/07 10:52:57;;;;;;;1.67;0.60;;;19.60;99.90;;;;;;5115491;28;20176;-40
2022/07/07 10:55:52;;;;;;;3.03;0.50;;;19.60;99.90;;;;;;5097111;28;20259;-41
2022/07/07 10:58:54;;;;;;;1.73;0.60;;;19.70;99.90;;;;;;5115214;28;20657;-41
2022/07/07 11:01:25;;;;;;;1.00;0.60;;;19.90;99.90;;;;;;5115132;28;20181;-40
2022/07/07 11:03:50;;;;;;;1.03;0.60;;;20.00;99.90;;;;;;5115703;28;20162;-40
2022/07/07 11:06:16;;;;;;;1.23;0.70;;;20.00;99.90;;;;;;5115075;28;20239;-40
2022/07/07 11:08:42;;;;;;;6.77;0.93;;;19.90;99.90;;;;;;5115367;28;20549;-40
2022/07/07 11:11:08;;;;;;;1.80;0.90;;;19.90;99.90;;;;;;5115294;28;20207;-40
2022/07/07 11:13:42;;;;;;;2.00;0.67;;;19.80;99.90;;;;;;5115156;28;20181;-40
2022/07/07 11:16:20;;;;;;;2.97;0.70;;;19.70;99.90;;;;;;5115326;28;20166;-39
2022/07/07 11:18:54;;;;;;;3.13;0.70;;;19.70;99.90;;;;;;5115148;28;20212;-40
2022/07/07 11:21:36;;;;;;;1.43;0.67;;;19.60;99.90;;;;;;5115076;28;20166;-40
2022/07/07 11:24:02;;;;;;;1.67;0.50;;;19.60;99.90;;;;;;5114804;28;20191;-41
2022/07/07 11:26:28;;;;;;;5.57;0.73;;;19.40;99.90;;;;;;5116234;28;20185;-38
2022/07/07 11:28:58;;;;;;;3.87;0.70;;;19.40;99.90;;;;;;5114708;28;20202;-41
2022/07/07 11:31:26;;;;;;;1.87;0.60;;;19.30;99.90;;;;;;5114553;28;20245;-40
2022/07/07 11:33:55;;;;;;;1.47;0.80;;;19.20;99.90;;;;;;5114484;28;20167;-40
2022/07/07 11:36:23;;;;;;;2.93;1.00;;;19.10;99.90;;;;;;5114327;28;20182;-41
2022/07/07 11:38:54;;;;;;;2.87;1.40;;;19.00;99.90;;;;;;5114229;28;20316;-40
2022/07/07 11:41:19;;;;;;;1.50;0.50;;;18.90;99.90;;;;;;5114724;28;20167;-41
2022/07/07 11:43:55;;;;;;;2.47;0.87;;;19.00;99.90;;;;;;5114597;28;20204;-40
2022/07/07 11:46:25;;;;;;;4.40;0.80;;;19.00;99.90;;;;;;5115202;28;20532;-39
2022/07/07 11:48:51;;;;;;;3.13;0.70;;;19.00;99.90;;;;;;5114685;28;20546;-40
2022/07/07 11:51:16;;;;;;;3.90;0.70;;;19.20;99.90;;;;;;5114632;28;20178;-41
2022/07/07 11:53:42;;;;;;;3.07;0.70;;;19.20;99.90;;;;;;5095565;28;20174;-40
2022/07/07 11:56:08;;;;;;;1.40;0.60;;;19.30;99.90;;;;;;5114453;28;20536;-41
2022/07/07 11:58:33;;;;;;;3.30;0.70;;;19.30;99.90;;;;;;5095835;28;20178;-40
2022/07/07 12:00:59;;;;;;;3.67;0.73;;;19.20;99.90;;;;;;5115633;28;20182;-39
2022/07/07 12:03:30;;;;;;;1.63;0.60;;;19.10;99.90;;;;;;5114146;28;20174;-39
2022/07/07 12:05:57;;;;;;;1.50;0.60;;;19.10;99.90;;;;;;5114296;28;20197;-40
2022/07/07 12:08:32;;;;;;;2.47;0.83;;;19.00;99.90;;;;;;5114206;28;20231;-40
2022/07/07 12:10:57;;;;;;;3.03;0.87;;;19.00;99.90;;;;;;5114417;28;20158;-40
2022/07/07 12:13:25;;;;;;;2.77;0.70;;;18.90;99.90;;;;;;5114093;28;20170;-41
2022/07/07 12:15:53;;;;;;;1.27;0.60;;;18.70;99.90;;;;;;5114079;28;20170;-40
2022/07/07 12:18:40;;;;;;;2.53;0.50;;;18.70;99.90;;;;;;5113952;28;20657;-39
2022/07/07 12:21:12;;;;;;;2.13;0.90;;;18.60;99.90;;;;;;5115796;28;20567;-40
2022/07/07 12:23:42;;;;;;;2.50;0.70;;;18.50;99.90;;;;;;5114123;28;20178;-40
2022/07/07 12:26:10;;;;;;;2.23;0.80;;;18.60;99.90;;;;;;5114071;28;20178;-40
2022/07/07 12:28:36;;;;;;;4.53;0.73;;;18.70;99.90;;;;;;5095400;28;20205;-41
2022/07/07 12:31:04;;;;;;;0.80;0.50;;;18.80;99.90;;;;;;5116125;28;20171;-39
2022/07/07 12:33:40;;;;;;;2.37;0.73;;;18.90;99.90;;;;;;5114126;28;20189;-41
2022/07/07 12:36:39;;;;;;;4.23;1.00;;;18.90;99.90;;;;;;5114125;28;20193;-40
2022/07/07 12:39:06;;;;;;;2.43;0.60;;;18.80;99.90;;;;;;5080537;28;20201;-41
2022/07/07 12:41:33;;;;;;;1.03;0.53;;;18.80;99.90;;;;;;5114069;28;20520;-40
2022/07/07 12:44:23;;;;;;;1.50;0.80;;;18.70;99.90;;;;;;5113669;28;20178;-40
2022/07/07 12:46:49;;;;;;;3.97;0.80;;;18.60;99.90;;;;;;5114392;28;20165;-40
2022/07/07 12:49:15;;;;;;;0.97;0.63;;;18.60;99.90;;;;;;5114491;28;20210;-40
2022/07/07 12:51:45;;;;;;;1.00;0.60;;;18.60;99.90;;;;;;5114509;28;20173;-41
2022/07/07 12:54:31;;;;;;;4.73;0.60;;;18.60;99.90;;;;;;5116823;28;20236;-41